Time;durP1;ratioP1;P1;durP2;ratioP2;P2;SDS_P1;SDS_P2;PMS_P1;PMS_P2;Temp;Humidity;BMP_temperature;BMP_pressure;BME280_temperature;BME280_humidity;BME280_pressure;Samples;Min_cycle;Max_cycle;Signal;HPM_P1;HPM_P2
2022/12/04 00:01:37;;;;;;;15.82;12.95;;;16.10;93.90;;;;;;4250445;27;20261;-71
2022/12/04 00:03:39;;;;;;;14.55;11.93;;;16.10;93.90;;;;;;4247240;27;20213;-72
2022/12/04 00:05:43;;;;;;;14.68;11.73;;;16.10;93.90;;;;;;4235933;27;20623;-71
2022/12/04 00:07:45;;;;;;;15.60;11.93;;;16.10;93.90;;;;;;4247500;27;20209;-71
2022/12/04 00:09:48;;;;;;;14.63;11.85;;;16.10;94.00;;;;;;4244777;27;20577;-71
2022/12/04 00:11:50;;;;;;;16.27;12.00;;;16.00;93.80;;;;;;4249251;27;20270;-71
2022/12/04 00:13:52;;;;;;;14.13;11.52;;;16.10;94.20;;;;;;4244848;27;20201;-71
2022/12/04 00:15:55;;;;;;;14.13;11.50;;;16.10;93.90;;;;;;4253305;27;20263;-71
2022/12/04 00:17:57;;;;;;;14.52;11.63;;;16.00;93.80;;;;;;4247586;27;20696;-72
2022/12/04 00:19:59;;;;;;;13.55;11.80;;;16.00;93.90;;;;;;4250577;27;20214;-71
2022/12/04 00:22:03;;;;;;;14.52;11.93;;;16.00;93.90;;;;;;4252886;27;20572;-71
2022/12/04 00:24:06;;;;;;;13.83;11.93;;;16.00;94.10;;;;;;4246595;27;20654;-72
2022/12/04 00:26:11;;;;;;;14.13;10.85;;;16.00;94.20;;;;;;4239252;27;20222;-71
2022/12/04 00:28:13;;;;;;;14.95;12.65;;;16.00;94.00;;;;;;4243567;27;20218;-71
2022/12/04 00:30:15;;;;;;;14.05;11.55;;;16.00;93.90;;;;;;4245652;27;20274;-71
2022/12/04 00:32:18;;;;;;;13.90;11.40;;;16.00;93.90;;;;;;4241171;27;20209;-71
2022/12/04 00:34:21;;;;;;;13.60;11.75;;;16.00;93.90;;;;;;4244542;27;20213;-71
2022/12/04 00:36:25;;;;;;;15.15;12.52;;;16.00;94.20;;;;;;4245898;27;20217;-72
2022/12/04 00:38:29;;;;;;;15.27;12.20;;;16.00;94.00;;;;;;4243973;27;20217;-71
2022/12/04 00:40:31;;;;;;;16.45;12.95;;;16.00;94.10;;;;;;4240297;27;20762;-71
2022/12/04 00:42:35;;;;;;;13.73;11.83;;;16.00;93.90;;;;;;4245564;27;21618;-72
2022/12/04 00:44:37;;;;;;;14.87;11.97;;;16.00;93.90;;;;;;4245996;27;20561;-71
2022/12/04 00:46:40;;;;;;;15.30;11.90;;;16.00;93.90;;;;;;4240195;27;20740;-71
2022/12/04 00:48:43;;;;;;;15.37;12.53;;;15.90;93.90;;;;;;4243902;27;20217;-71
2022/12/04 00:50:45;;;;;;;15.30;12.43;;;15.90;94.00;;;;;;4244478;27;20243;-71
2022/12/04 00:52:47;;;;;;;14.88;12.60;;;15.90;93.90;;;;;;4242214;27;20213;-72
2022/12/04 00:54:51;;;;;;;14.18;11.77;;;16.00;93.90;;;;;;4246474;27;20217;-71
2022/12/04 00:56:54;;;;;;;16.23;13.13;;;15.90;93.90;;;;;;4240203;27;20292;-71
2022/12/04 00:58:57;;;;;;;14.37;12.47;;;15.90;93.90;;;;;;4244287;27;20213;-72
2022/12/04 01:01:02;;;;;;;14.40;11.60;;;16.00;93.90;;;;;;4243438;27;20278;-71
2022/12/04 01:03:05;;;;;;;14.57;11.93;;;15.90;94.00;;;;;;4242547;27;20217;-71
2022/12/04 01:05:08;;;;;;;14.20;11.73;;;15.90;93.90;;;;;;4246081;27;20212;-71
2022/12/04 01:07:10;;;;;;;15.57;11.85;;;15.90;93.90;;;;;;4242844;27;20220;-71
2022/12/04 01:09:13;;;;;;;14.97;11.90;;;15.90;93.90;;;;;;4240221;27;20257;-72
2022/12/04 01:11:20;;;;;;;14.75;12.18;;;15.90;93.90;;;;;;4244830;27;20258;-71
2022/12/04 01:13:23;;;;;;;15.32;12.50;;;16.00;93.90;;;;;;4243408;27;20288;-71
2022/12/04 01:15:25;;;;;;;14.68;11.35;;;15.90;93.90;;;;;;4241729;27;20278;-71
2022/12/04 01:17:27;;;;;;;15.27;11.65;;;15.90;94.30;;;;;;4244651;27;20233;-71
2022/12/04 01:19:29;;;;;;;14.57;11.47;;;15.90;93.80;;;;;;4242057;27;20618;-71
2022/12/04 01:21:32;;;;;;;13.80;11.70;;;15.90;93.80;;;;;;4242356;27;20326;-72
2022/12/04 01:23:34;;;;;;;15.85;12.60;;;15.90;93.80;;;;;;4243159;27;20689;-71
2022/12/04 01:25:37;;;;;;;14.43;11.55;;;15.90;94.10;;;;;;4240748;27;20235;-72
2022/12/04 01:27:40;;;;;;;15.85;12.63;;;15.90;93.80;;;;;;4243967;27;20274;-71
2022/12/04 01:29:43;;;;;;;15.77;12.13;;;15.90;93.70;;;;;;4244208;27;20217;-71
2022/12/04 01:31:45;;;;;;;15.60;12.57;;;15.90;93.80;;;;;;4238435;27;20221;-71
2022/12/04 01:33:47;;;;;;;15.18;12.35;;;16.00;93.90;;;;;;4247237;27;20209;-71
2022/12/04 01:35:53;;;;;;;14.18;11.88;;;15.90;93.80;;;;;;4253395;27;20260;-71
2022/12/04 01:37:55;;;;;;;15.10;12.48;;;15.90;93.80;;;;;;4248076;27;20233;-71
2022/12/04 01:39:58;;;;;;;13.90;11.60;;;15.90;93.80;;;;;;4247344;27;20621;-71
2022/12/04 01:42:00;;;;;;;14.85;12.27;;;15.90;93.80;;;;;;4245542;27;20240;-71
2022/12/04 01:44:09;;;;;;;13.13;11.23;;;15.90;93.90;;;;;;4239917;27;20262;-71
2022/12/04 01:46:12;;;;;;;15.37;12.03;;;15.90;93.80;;;;;;4245875;27;20333;-71
2022/12/04 01:48:22;;;;;;;14.85;12.32;;;15.80;93.80;;;;;;4245473;27;20209;-71
2022/12/04 01:50:24;;;;;;;14.43;12.10;;;15.90;94.00;;;;;;4240093;28;20213;-71
2022/12/04 01:52:27;;;;;;;16.33;13.15;;;15.90;94.10;;;;;;4239544;28;20230;-72
2022/12/04 01:54:32;;;;;;;14.75;12.18;;;15.90;93.90;;;;;;4244812;28;20631;-72
2022/12/04 01:56:38;;;;;;;15.98;12.18;;;15.90;94.00;;;;;;4241742;28;20259;-71
2022/12/04 01:58:45;;;;;;;15.73;12.45;;;15.80;93.80;;;;;;4244833;28;20236;-71
2022/12/04 02:00:54;;;;;;;12.83;11.20;;;15.90;93.80;;;;;;4241835;27;20221;-71
2022/12/04 02:02:58;;;;;;;15.90;12.60;;;15.80;93.90;;;;;;4245553;27;20238;-71
2022/12/04 02:05:01;;;;;;;13.57;11.73;;;15.80;93.80;;;;;;4245909;28;20197;-72
2022/12/04 02:07:03;;;;;;;13.47;11.67;;;15.80;93.80;;;;;;4234087;28;20258;-71
2022/12/04 02:09:06;;;;;;;14.50;12.07;;;15.90;93.80;;;;;;4245561;28;20645;-71
2022/12/04 02:11:20;;;;;;;14.75;12.00;;;15.90;93.80;;;;;;4245769;28;20217;-72
2022/12/04 02:13:31;;;;;;;14.60;11.65;;;15.80;93.80;;;;;;4236225;27;20318;-72
2022/12/04 02:15:41;;;;;;;15.02;11.88;;;15.80;93.80;;;;;;4244777;28;20213;-71
2022/12/04 02:17:54;;;;;;;14.30;12.02;;;15.90;93.80;;;;;;4236675;28;20233;-71
2022/12/04 02:20:12;;;;;;;16.13;12.80;;;15.80;93.80;;;;;;4237565;28;20261;-71
2022/12/04 02:22:28;;;;;;;13.55;11.68;;;15.80;93.70;;;;;;4236446;27;20556;-72
2022/12/04 02:24:46;;;;;;;16.38;12.38;;;15.80;93.80;;;;;;4223197;28;20213;-71
2022/12/04 02:26:53;;;;;;;15.30;11.77;;;15.80;93.90;;;;;;4236996;28;20205;-71
2022/12/04 02:29:00;;;;;;;13.52;11.30;;;15.80;93.80;;;;;;4225703;28;20214;-71
2022/12/04 02:31:04;;;;;;;13.67;11.93;;;15.80;93.80;;;;;;4222556;28;20214;-71
2022/12/04 02:33:14;;;;;;;15.23;12.73;;;15.80;93.70;;;;;;4228159;28;20255;-71
2022/12/04 02:35:23;;;;;;;14.88;12.27;;;15.70;93.80;;;;;;4228482;28;20652;-71
2022/12/04 02:37:31;;;;;;;15.80;12.83;;;15.80;93.90;;;;;;4227682;28;20217;-71
2022/12/04 02:39:37;;;;;;;16.00;12.57;;;15.80;93.80;;;;;;4225052;28;20222;-71
2022/12/04 02:41:45;;;;;;;13.80;12.10;;;15.80;93.80;;;;;;4222820;28;20658;-71
2022/12/04 02:43:50;;;;;;;15.80;12.87;;;15.80;93.80;;;;;;4225336;28;20217;-71
2022/12/04 02:46:00;;;;;;;16.25;12.43;;;15.80;93.80;;;;;;4217654;28;20215;-71
2022/12/04 02:48:06;;;;;;;16.17;12.67;;;15.80;93.80;;;;;;4223675;28;20209;-71
2022/12/04 02:50:14;;;;;;;16.60;13.03;;;15.80;93.70;;;;;;4226344;28;20221;-71
2022/12/04 02:52:22;;;;;;;14.90;12.60;;;15.80;93.80;;;;;;4224606;28;20214;-71
2022/12/04 02:54:30;;;;;;;14.63;11.93;;;15.80;93.90;;;;;;4222085;28;20218;-71
2022/12/04 02:56:37;;;;;;;16.03;12.57;;;15.80;93.70;;;;;;4227488;28;20255;-71
2022/12/04 02:58:42;;;;;;;15.13;12.27;;;15.80;93.80;;;;;;4226158;28;20238;-71
2022/12/04 03:00:47;;;;;;;14.17;12.13;;;15.80;93.80;;;;;;4228128;28;20213;-71
2022/12/04 03:02:55;;;;;;;16.20;12.73;;;15.80;93.70;;;;;;4229405;28;20262;-72
2022/12/04 03:05:01;;;;;;;15.73;12.90;;;15.80;93.80;;;;;;4224215;27;20304;-71
2022/12/04 03:07:09;;;;;;;14.57;12.02;;;15.80;93.70;;;;;;4232092;27;20208;-71
2022/12/04 03:09:17;;;;;;;15.40;12.32;;;15.80;93.80;;;;;;4229744;28;20678;-72
2022/12/04 03:11:20;;;;;;;14.93;12.47;;;15.80;93.80;;;;;;4224688;27;20229;-71
2022/12/04 03:13:28;;;;;;;14.93;12.20;;;15.80;93.70;;;;;;4226782;28;20213;-71
2022/12/04 03:15:34;;;;;;;14.43;12.27;;;15.70;93.70;;;;;;4227133;28;20234;-71
2022/12/04 03:17:45;;;;;;;15.50;12.57;;;15.70;93.70;;;;;;4225224;28;20248;-71
2022/12/04 03:19:53;;;;;;;16.33;12.73;;;15.70;93.80;;;;;;4228945;28;20235;-72
2022/12/04 03:22:01;;;;;;;16.07;12.57;;;15.70;93.70;;;;;;4231852;27;20270;-72
2022/12/04 03:24:11;;;;;;;16.70;13.17;;;15.70;93.90;;;;;;4244949;27;20213;-71
2022/12/04 03:26:22;;;;;;;16.73;12.73;;;15.80;93.70;;;;;;4245509;27;20269;-71
2022/12/04 03:28:31;;;;;;;15.27;12.40;;;15.80;93.70;;;;;;4244027;27;20232;-71
2022/12/04 03:30:39;;;;;;;17.47;12.97;;;15.70;93.70;;;;;;4246449;27;20754;-71
2022/12/04 03:32:47;;;;;;;16.57;12.77;;;15.70;93.70;;;;;;4246402;27;20649;-71
2022/12/04 03:34:56;;;;;;;14.70;12.17;;;15.80;93.80;;;;;;4244214;27;20212;-71
2022/12/04 03:37:03;;;;;;;15.97;12.80;;;15.80;93.80;;;;;;4241611;27;20706;-71
2022/12/04 03:39:15;;;;;;;15.03;12.63;;;15.70;93.60;;;;;;4245865;27;20229;-71
2022/12/04 03:41:25;;;;;;;16.40;13.05;;;15.70;93.70;;;;;;4241150;27;20221;-71
2022/12/04 03:43:31;;;;;;;16.47;12.90;;;15.70;93.70;;;;;;4243361;27;20253;-71
2022/12/04 03:45:41;;;;;;;15.73;12.33;;;15.70;93.70;;;;;;4246027;27;20718;-71
2022/12/04 03:47:51;;;;;;;15.73;12.52;;;15.70;93.80;;;;;;4243670;27;20506;-71
2022/12/04 03:50:00;;;;;;;15.27;12.30;;;15.70;93.90;;;;;;4245056;27;20204;-80
2022/12/04 03:52:08;;;;;;;15.43;12.70;;;15.70;93.70;;;;;;4245378;27;20269;-80
2022/12/04 03:54:14;;;;;;;15.87;11.90;;;15.70;93.70;;;;;;4244667;27;20261;-80
2022/12/04 03:56:20;;;;;;;15.03;12.53;;;15.70;93.70;;;;;;4245146;27;20212;-81
2022/12/04 03:58:28;;;;;;;16.40;13.13;;;15.70;93.80;;;;;;4243043;27;21520;-80
2022/12/04 04:00:33;;;;;;;17.47;13.43;;;15.70;94.00;;;;;;4245264;27;20631;-80
2022/12/04 04:02:41;;;;;;;15.83;12.90;;;15.70;94.10;;;;;;4240870;27;20265;-80
2022/12/04 04:04:47;;;;;;;16.53;13.13;;;15.70;93.70;;;;;;4240229;27;20261;-80
2022/12/04 04:06:55;;;;;;;15.57;12.97;;;15.70;93.80;;;;;;4237205;27;20263;-80
2022/12/04 04:09:02;;;;;;;14.83;12.23;;;15.70;93.70;;;;;;4245612;27;20269;-80
2022/12/04 04:11:10;;;;;;;15.53;12.47;;;15.70;93.70;;;;;;4243058;27;20224;-80
2022/12/04 04:25:23;;;;;;;15.60;12.87;;;15.70;93.80;;;;;;4245070;27;20205;-80
2022/12/04 04:27:25;;;;;;;15.65;13.00;;;15.70;93.70;;;;;;4240927;27;20209;-81
2022/12/04 04:29:28;;;;;;;16.07;12.87;;;15.70;93.70;;;;;;4246924;27;20209;-80
2022/12/04 04:31:36;;;;;;;15.50;12.47;;;15.70;93.70;;;;;;4245175;27;20258;-80
2022/12/04 04:33:47;;;;;;;15.40;12.50;;;15.70;93.80;;;;;;4242817;27;20213;-80
2022/12/04 04:35:56;;;;;;;15.75;13.25;;;15.70;93.80;;;;;;4245534;27;20271;-80
2022/12/04 04:38:08;;;;;;;15.45;12.88;;;15.70;93.80;;;;;;4246534;27;20213;-80
2022/12/04 04:40:18;;;;;;;16.42;12.73;;;15.70;93.70;;;;;;4243244;27;20585;-80
2022/12/04 04:42:25;;;;;;;14.93;11.97;;;15.70;93.70;;;;;;4246483;27;21004;-80
2022/12/04 04:44:33;;;;;;;15.35;12.80;;;15.70;93.70;;;;;;4244995;27;20209;-80
2022/12/04 04:46:38;;;;;;;15.70;12.47;;;15.60;93.70;;;;;;4241440;27;20269;-80
2022/12/04 04:48:43;;;;;;;16.90;13.03;;;15.70;93.70;;;;;;4241919;27;20217;-80
2022/12/04 04:50:46;;;;;;;16.25;13.15;;;15.70;93.70;;;;;;4240486;27;20922;-80
2022/12/04 04:52:51;;;;;;;16.67;12.20;;;15.70;93.80;;;;;;4246281;27;20258;-80
2022/12/04 04:54:56;;;;;;;14.17;11.90;;;15.70;94.00;;;;;;4246292;27;20630;-80
2022/12/04 04:56:59;;;;;;;18.43;13.67;;;15.70;93.80;;;;;;4242881;27;20254;-80
2022/12/04 04:59:01;;;;;;;15.82;13.50;;;15.70;93.80;;;;;;4246128;27;20241;-80
2022/12/04 05:01:07;;;;;;;15.90;13.10;;;15.60;93.70;;;;;;4246054;27;20242;-80
2022/12/04 05:03:10;;;;;;;15.53;12.63;;;15.60;93.80;;;;;;4242047;27;20298;-80
2022/12/04 05:05:12;;;;;;;15.77;12.60;;;15.70;94.10;;;;;;4246271;27;20232;-80
2022/12/04 05:07:15;;;;;;;16.35;12.90;;;15.70;94.10;;;;;;4245542;27;20277;-80
2022/12/04 05:09:17;;;;;;;15.57;12.80;;;15.70;93.90;;;;;;4242651;27;20213;-80
2022/12/04 05:11:21;;;;;;;16.47;13.57;;;15.60;93.80;;;;;;4243259;27;20209;-81
2022/12/04 05:13:23;;;;;;;14.77;12.37;;;15.60;93.90;;;;;;4242714;27;20214;-80
2022/12/04 05:15:25;;;;;;;15.70;13.02;;;15.60;93.70;;;;;;4244545;27;20630;-80
2022/12/04 05:17:28;;;;;;;15.87;13.33;;;15.60;93.70;;;;;;4243870;27;20225;-80
2022/12/04 05:21:52;;;;;;;16.00;12.80;;;15.60;93.80;;;;;;4245732;27;20229;-80
2022/12/04 05:23:54;;;;;;;16.30;13.00;;;15.60;93.70;;;;;;4244245;27;20213;-80
2022/12/04 05:25:59;;;;;;;15.87;13.00;;;15.60;93.70;;;;;;4234493;27;20314;-81
2022/12/04 05:28:03;;;;;;;15.07;12.37;;;15.60;93.70;;;;;;4239447;27;20874;-80
2022/12/04 05:30:07;;;;;;;15.82;12.73;;;15.60;93.80;;;;;;4246776;27;20263;-72
2022/12/04 05:32:09;;;;;;;14.90;12.37;;;15.60;94.00;;;;;;4235967;27;20217;-71
2022/12/04 05:34:11;;;;;;;16.27;13.30;;;15.60;93.80;;;;;;4240006;27;20293;-71
2022/12/04 05:36:14;;;;;;;14.75;12.55;;;15.60;93.80;;;;;;4244626;27;20557;-71
2022/12/04 05:38:16;;;;;;;14.87;12.87;;;15.60;93.80;;;;;;4241700;27;20273;-71
2022/12/04 05:40:18;;;;;;;16.70;13.70;;;15.60;93.80;;;;;;4237746;27;20619;-71
2022/12/04 05:42:21;;;;;;;16.13;13.20;;;15.60;93.80;;;;;;4225382;28;20214;-71
2022/12/04 05:44:25;;;;;;;16.27;12.50;;;15.60;93.80;;;;;;4235660;27;20262;-71
2022/12/04 05:46:27;;;;;;;15.87;12.87;;;15.50;93.80;;;;;;4239518;27;20225;-71
2022/12/04 05:48:29;;;;;;;16.63;12.87;;;15.60;93.90;;;;;;4241634;27;20214;-71
2022/12/04 05:50:31;;;;;;;16.77;12.63;;;15.60;94.40;;;;;;4235711;27;20270;-71
2022/12/04 05:52:34;;;;;;;15.67;12.93;;;15.60;93.80;;;;;;4241653;27;20274;-71
2022/12/04 05:54:36;;;;;;;15.43;12.03;;;15.60;93.80;;;;;;4241878;27;20221;-71
2022/12/04 05:56:39;;;;;;;16.40;12.77;;;15.60;93.80;;;;;;4241318;27;20266;-71
2022/12/04 05:58:41;;;;;;;16.73;13.40;;;15.60;93.80;;;;;;4235147;28;20662;-71
2022/12/04 06:00:44;;;;;;;14.90;12.33;;;15.50;93.80;;;;;;4237731;28;20289;-71
2022/12/04 06:02:47;;;;;;;15.43;12.43;;;15.50;94.10;;;;;;4240791;28;20246;-71
2022/12/04 06:04:49;;;;;;;16.07;13.57;;;15.50;93.80;;;;;;4231363;27;20274;-71
2022/12/04 06:06:53;;;;;;;14.40;12.37;;;15.50;94.00;;;;;;4242163;27;20266;-71
2022/12/04 06:08:57;;;;;;;15.73;12.57;;;15.50;93.80;;;;;;4242556;28;20209;-71
2022/12/04 06:10:59;;;;;;;16.03;12.90;;;15.50;93.90;;;;;;4238548;27;20208;-71
2022/12/04 06:13:02;;;;;;;15.53;12.80;;;15.50;93.80;;;;;;4239716;27;20221;-71
2022/12/04 06:15:05;;;;;;;15.23;13.07;;;15.50;94.10;;;;;;4236069;28;20671;-71
2022/12/04 06:17:08;;;;;;;15.93;13.40;;;15.50;93.90;;;;;;4234055;27;20315;-71
2022/12/04 06:19:13;;;;;;;17.63;13.53;;;15.50;93.90;;;;;;4241286;28;20273;-71
2022/12/04 06:21:19;;;;;;;16.13;13.03;;;15.50;93.90;;;;;;4239580;28;20220;-72
2022/12/04 06:23:21;;;;;;;14.60;12.97;;;15.50;93.80;;;;;;4232511;28;20235;-71
2022/12/04 06:25:24;;;;;;;16.63;14.07;;;15.50;94.00;;;;;;4237740;28;20292;-71
2022/12/04 06:27:26;;;;;;;16.60;12.97;;;15.50;93.90;;;;;;4236815;28;20210;-71
2022/12/04 06:29:28;;;;;;;17.70;13.97;;;15.50;93.80;;;;;;4237073;28;20259;-71
2022/12/04 06:31:32;;;;;;;16.73;13.53;;;15.50;94.00;;;;;;4243272;27;20676;-71
2022/12/04 06:33:36;;;;;;;15.43;13.13;;;15.50;93.80;;;;;;4235168;27;20254;-71
2022/12/04 06:35:38;;;;;;;17.27;13.23;;;15.50;93.80;;;;;;4243807;27;20637;-72
2022/12/04 06:37:41;;;;;;;15.97;13.43;;;15.50;93.80;;;;;;4246011;27;20209;-71
2022/12/04 06:39:43;;;;;;;18.63;14.00;;;15.50;93.90;;;;;;4239788;27;20631;-71
2022/12/04 06:41:46;;;;;;;16.47;13.63;;;15.50;93.90;;;;;;4232841;27;20205;-71
2022/12/04 06:43:49;;;;;;;15.97;12.73;;;15.50;93.90;;;;;;4243632;27;20264;-71
2022/12/04 06:46:00;;;;;;;16.60;13.67;;;15.50;93.90;;;;;;4231607;27;20271;-71
2022/12/04 06:48:02;;;;;;;15.53;12.70;;;15.50;94.00;;;;;;4238940;27;20217;-71
2022/12/04 06:50:07;;;;;;;17.50;13.50;;;15.50;94.00;;;;;;4246332;27;20206;-71
2022/12/04 06:52:10;;;;;;;16.77;13.83;;;15.50;93.90;;;;;;4245335;27;20209;-71
2022/12/04 06:54:12;;;;;;;16.83;13.80;;;15.50;93.90;;;;;;4238411;27;20217;-71
2022/12/04 06:56:17;;;;;;;17.40;14.03;;;15.50;93.90;;;;;;4242101;27;20710;-71
2022/12/04 06:58:20;;;;;;;15.40;12.27;;;15.50;93.90;;;;;;4242953;27;20665;-71
2022/12/04 07:00:22;;;;;;;16.13;13.30;;;15.50;93.90;;;;;;4242628;27;20487;-72
2022/12/04 07:02:24;;;;;;;16.07;13.17;;;15.50;93.90;;;;;;4238223;27;20628;-71
2022/12/04 07:04:27;;;;;;;15.47;13.03;;;15.50;93.90;;;;;;4241619;27;20579;-71
2022/12/04 07:06:32;;;;;;;16.60;13.67;;;15.50;93.90;;;;;;4246862;27;20210;-71
2022/12/04 07:08:35;;;;;;;16.70;13.80;;;15.50;93.90;;;;;;4240457;27;20221;-71
2022/12/04 07:10:38;;;;;;;16.40;13.40;;;15.50;93.90;;;;;;4238675;27;20206;-71
2022/12/04 07:12:40;;;;;;;15.43;13.20;;;15.50;93.90;;;;;;4241539;27;20213;-71
2022/12/04 07:14:43;;;;;;;16.07;13.83;;;15.50;94.40;;;;;;4243814;27;20651;-71
2022/12/04 07:16:45;;;;;;;17.77;14.17;;;15.50;94.00;;;;;;4245112;27;20209;-71
2022/12/04 07:18:49;;;;;;;17.77;14.13;;;15.50;93.90;;;;;;4244853;27;20217;-71
2022/12/04 07:20:51;;;;;;;16.17;13.50;;;15.50;94.20;;;;;;4243838;27;20277;-72
2022/12/04 07:22:55;;;;;;;16.83;14.17;;;15.50;93.90;;;;;;4243221;27;20774;-71
2022/12/04 07:24:57;;;;;;;15.47;13.00;;;15.50;93.90;;;;;;4246928;27;20605;-71
2022/12/04 07:26:59;;;;;;;16.40;13.73;;;15.50;93.90;;;;;;4241330;27;20779;-72
2022/12/04 07:29:02;;;;;;;15.33;13.03;;;15.50;93.90;;;;;;4244562;27;20661;-71
2022/12/04 07:31:05;;;;;;;17.83;13.20;;;15.50;94.20;;;;;;4245664;27;20266;-71
2022/12/04 07:33:07;;;;;;;17.20;13.73;;;15.50;93.90;;;;;;4244816;27;20620;-71
2022/12/04 07:35:10;;;;;;;17.80;14.03;;;15.50;94.10;;;;;;4245126;27;20669;-71
2022/12/04 07:37:12;;;;;;;17.10;13.97;;;15.50;93.90;;;;;;4245940;27;20212;-71
2022/12/04 07:39:16;;;;;;;16.07;12.73;;;15.40;94.00;;;;;;4235902;27;20261;-71
2022/12/04 07:41:18;;;;;;;19.03;14.50;;;15.40;94.20;;;;;;4243973;27;20274;-71
2022/12/04 07:43:21;;;;;;;14.80;12.93;;;15.50;93.90;;;;;;4245632;27;20217;-71
2022/12/04 07:45:23;;;;;;;16.97;13.80;;;15.50;93.90;;;;;;4241725;27;20595;-71
2022/12/04 07:47:25;;;;;;;15.53;12.83;;;15.50;94.00;;;;;;4246428;27;20228;-71
2022/12/04 07:49:28;;;;;;;16.55;13.02;;;15.50;93.90;;;;;;4245377;27;20281;-71
2022/12/04 07:51:30;;;;;;;17.63;14.23;;;15.50;94.00;;;;;;4242837;27;20209;-71
2022/12/04 07:53:34;;;;;;;15.67;13.23;;;15.40;93.90;;;;;;4244354;27;20375;-71
2022/12/04 07:55:38;;;;;;;14.67;13.03;;;15.40;94.30;;;;;;4239462;27;20282;-72
2022/12/04 07:57:40;;;;;;;15.77;13.77;;;15.40;94.10;;;;;;4225324;28;20724;-71
2022/12/04 07:59:42;;;;;;;16.17;14.27;;;15.40;93.90;;;;;;4244654;27;20225;-71
2022/12/04 08:01:45;;;;;;;17.57;13.97;;;15.40;93.80;;;;;;4236456;27;20237;-71
2022/12/04 08:03:49;;;;;;;16.33;13.43;;;15.50;93.90;;;;;;4237600;27;20634;-71
2022/12/04 08:05:51;;;;;;;17.30;14.40;;;15.40;93.80;;;;;;4238640;27;20269;-71
2022/12/04 08:07:54;;;;;;;18.23;14.20;;;15.40;93.90;;;;;;4240442;27;20266;-71
2022/12/04 08:09:56;;;;;;;18.13;13.77;;;15.50;94.30;;;;;;4243789;27;20250;-71
2022/12/04 08:12:00;;;;;;;15.50;13.60;;;15.40;93.90;;;;;;4231727;27;20654;-71
2022/12/04 08:14:05;;;;;;;16.23;13.87;;;15.40;94.10;;;;;;4237130;27;20210;-71
2022/12/04 08:16:09;;;;;;;18.50;14.03;;;15.40;93.90;;;;;;4238025;27;20722;-71
2022/12/04 08:18:11;;;;;;;16.73;13.57;;;15.40;93.90;;;;;;4246267;27;20212;-71
2022/12/04 08:20:13;;;;;;;15.37;13.03;;;15.40;93.90;;;;;;4245181;27;20270;-72
2022/12/04 08:22:16;;;;;;;16.85;14.00;;;15.40;93.90;;;;;;4242571;27;20274;-71
2022/12/04 08:24:18;;;;;;;16.30;14.20;;;15.40;93.90;;;;;;4243799;27;20612;-71
2022/12/04 08:26:22;;;;;;;16.15;13.50;;;15.40;93.90;;;;;;4243952;27;20217;-71
2022/12/04 08:28:26;;;;;;;17.47;14.20;;;15.40;94.10;;;;;;4245335;27;20209;-71
2022/12/04 08:30:28;;;;;;;16.93;13.90;;;15.40;94.10;;;;;;4242054;27;20214;-71
2022/12/04 08:32:30;;;;;;;16.53;13.67;;;15.50;94.00;;;;;;4243856;27;20266;-71
2022/12/04 08:34:33;;;;;;;16.13;13.53;;;15.40;93.90;;;;;;4245571;27;20217;-71
2022/12/04 08:36:35;;;;;;;17.00;13.77;;;15.40;93.90;;;;;;4241886;27;20274;-71
2022/12/04 08:38:38;;;;;;;16.03;13.10;;;15.40;93.90;;;;;;4243509;27;20548;-71
2022/12/04 08:40:40;;;;;;;17.23;13.73;;;15.40;94.00;;;;;;4245259;27;20289;-71
2022/12/04 08:42:42;;;;;;;16.43;14.03;;;15.40;94.00;;;;;;4242373;27;20213;-71
2022/12/04 08:44:46;;;;;;;17.03;13.97;;;15.40;93.90;;;;;;4244667;27;20225;-71
2022/12/04 08:46:48;;;;;;;16.97;14.03;;;15.40;94.00;;;;;;4238203;27;20791;-71
2022/12/04 08:48:51;;;;;;;17.10;14.10;;;15.40;94.00;;;;;;4233525;27;20641;-72
2022/12/04 08:50:53;;;;;;;16.17;13.93;;;15.40;94.10;;;;;;4244830;27;20221;-71
2022/12/04 08:52:55;;;;;;;18.13;14.23;;;15.40;94.10;;;;;;4244917;27;20213;-71
2022/12/04 08:54:58;;;;;;;18.57;14.37;;;15.40;94.10;;;;;;4241465;27;20452;-71
2022/12/04 08:57:00;;;;;;;16.83;13.80;;;15.40;94.10;;;;;;4244822;27;20209;-71
2022/12/04 08:59:03;;;;;;;15.10;13.47;;;15.40;94.20;;;;;;4244943;27;20205;-71
2022/12/04 09:01:09;;;;;;;16.40;13.53;;;15.40;94.10;;;;;;4242165;27;20237;-71
2022/12/04 09:03:13;;;;;;;16.83;13.53;;;15.40;94.00;;;;;;4244498;27;20263;-71
2022/12/04 09:05:16;;;;;;;16.33;14.07;;;15.40;94.10;;;;;;4240764;27;20213;-72
2022/12/04 09:07:19;;;;;;;16.42;14.35;;;15.40;94.20;;;;;;4243554;27;20236;-72
2022/12/04 09:09:21;;;;;;;16.83;13.70;;;15.40;94.30;;;;;;4244330;27;20262;-71
2022/12/04 09:11:25;;;;;;;17.47;14.20;;;15.40;94.30;;;;;;4242068;27;20266;-72
2022/12/04 09:13:27;;;;;;;16.03;13.17;;;15.40;94.30;;;;;;4244007;27;20209;-71
2022/12/04 09:15:30;;;;;;;16.00;13.60;;;15.40;94.10;;;;;;4244848;27;20229;-71
2022/12/04 09:17:34;;;;;;;17.03;14.00;;;15.40;94.10;;;;;;4241215;27;20270;-72
2022/12/04 09:19:36;;;;;;;15.90;14.00;;;15.40;94.20;;;;;;4244912;27;20213;-72
2022/12/04 09:21:39;;;;;;;17.93;14.50;;;15.40;94.50;;;;;;4243961;27;20289;-72
2022/12/04 09:23:42;;;;;;;15.77;13.27;;;15.30;94.30;;;;;;4223287;27;20209;-72
2022/12/04 09:25:45;;;;;;;18.37;14.47;;;15.40;94.40;;;;;;4237437;27;20218;-72
2022/12/04 09:27:47;;;;;;;17.20;14.63;;;15.40;94.20;;;;;;4239627;27;20213;-72
2022/12/04 09:29:49;;;;;;;17.53;13.63;;;15.40;94.30;;;;;;4226393;27;20712;-72
2022/12/04 09:31:52;;;;;;;18.40;14.77;;;15.40;94.30;;;;;;4237878;27;20212;-72
2022/12/04 09:33:58;;;;;;;17.15;13.95;;;15.40;94.30;;;;;;4241097;27;20217;-72
2022/12/04 09:36:01;;;;;;;16.77;14.23;;;15.30;94.30;;;;;;4232139;27;20313;-72
2022/12/04 09:38:03;;;;;;;17.83;13.80;;;15.30;94.30;;;;;;4241867;27;20250;-72
2022/12/04 09:40:06;;;;;;;16.30;13.18;;;15.40;94.40;;;;;;4236415;27;20258;-72
2022/12/04 09:42:18;;;;;;;17.90;14.33;;;15.40;94.40;;;;;;4230351;27;20639;-72
2022/12/04 09:44:24;;;;;;;17.30;13.97;;;15.40;94.40;;;;;;4242618;27;20616;-72
2022/12/04 09:46:31;;;;;;;16.67;14.00;;;15.40;94.30;;;;;;4234720;27;20697;-72
2022/12/04 09:48:37;;;;;;;18.00;14.40;;;15.40;94.50;;;;;;4242250;27;20201;-72
2022/12/04 09:50:43;;;;;;;16.07;13.60;;;15.40;94.50;;;;;;4239974;27;20624;-72
2022/12/04 09:52:55;;;;;;;15.03;13.43;;;15.40;94.40;;;;;;4226629;27;20699;-72
2022/12/04 09:55:00;;;;;;;16.53;13.77;;;15.40;94.60;;;;;;4237169;27;20213;-72
2022/12/04 09:57:10;;;;;;;18.03;14.07;;;15.40;94.50;;;;;;4239887;27;20582;-72
2022/12/04 09:59:17;;;;;;;16.80;14.00;;;15.40;94.60;;;;;;4234626;28;20209;-72
2022/12/04 10:01:23;;;;;;;16.37;14.23;;;15.40;94.40;;;;;;4239698;28;20241;-71
2022/12/04 10:03:28;;;;;;;16.43;13.97;;;15.40;94.50;;;;;;4237226;28;20274;-72
2022/12/04 10:05:45;;;;;;;15.73;13.53;;;15.40;94.70;;;;;;4237697;27;20288;-72
2022/12/04 10:07:59;;;;;;;16.63;13.37;;;15.30;94.70;;;;;;4242881;27;20213;-72
2022/12/04 10:10:08;;;;;;;16.27;13.97;;;15.30;94.70;;;;;;4238139;27;20213;-72
2022/12/04 10:12:20;;;;;;;15.50;12.87;;;15.30;94.60;;;;;;4242531;27;20209;-72
2022/12/04 10:14:44;;;;;;;17.07;13.87;;;15.30;94.60;;;;;;4236232;27;20270;-72
2022/12/04 10:16:57;;;;;;;17.57;14.43;;;15.30;94.80;;;;;;4228706;28;20217;-72
2022/12/04 10:19:07;;;;;;;15.57;13.60;;;15.30;94.60;;;;;;4230281;27;20261;-72
2022/12/04 10:21:38;;;;;;;16.97;13.93;;;15.30;94.60;;;;;;4224482;27;20220;-72
2022/12/04 10:23:52;;;;;;;17.17;13.90;;;15.30;94.70;;;;;;4226632;28;20275;-72
2022/12/04 10:25:55;;;;;;;17.00;13.80;;;15.40;94.80;;;;;;4227578;27;20260;-72
2022/12/04 10:28:03;;;;;;;15.47;12.67;;;15.30;94.60;;;;;;4234369;27;20661;-72
2022/12/04 10:30:14;;;;;;;15.57;13.23;;;15.30;94.80;;;;;;4243793;27;20225;-72
2022/12/04 10:32:20;;;;;;;15.33;13.50;;;15.30;94.80;;;;;;4243454;27;20270;-72
2022/12/04 10:34:28;;;;;;;16.43;14.27;;;15.30;94.60;;;;;;4235191;27;20270;-72
2022/12/04 10:36:33;;;;;;;19.37;14.33;;;15.30;94.80;;;;;;4244315;27;20261;-72
2022/12/04 10:38:42;;;;;;;16.47;13.23;;;15.30;94.70;;;;;;4242323;27;20279;-72
2022/12/04 10:40:50;;;;;;;15.97;13.53;;;15.30;94.80;;;;;;4226099;27;20725;-72
2022/12/04 10:42:57;;;;;;;16.03;13.60;;;15.30;94.70;;;;;;4243870;27;20288;-72
2022/12/04 10:44:59;;;;;;;17.10;13.33;;;15.30;94.90;;;;;;4236681;27;20217;-72
2022/12/04 10:47:04;;;;;;;16.03;13.60;;;15.30;94.80;;;;;;4233099;27;20214;-72
2022/12/04 10:49:15;;;;;;;16.47;13.67;;;15.30;94.80;;;;;;4237474;27;20209;-72